Terminal Aerodrome Forecast
Issued by NWS

Home | Current Version | Previous Version | Text Only | Print | Product List | Glossary On
Versions: 1 2 3 4 5 6 7 8 9 10 11 12 13 14 15 16 17 18 19 20 21 22 23 24 25
000
FTUS44 KMAF 301723
TAFFST
TAF
KFST 301723Z 3018/3118 12011KT P6SM SCT110 SCT150=

USA.gov is the U.S. government's official web portal to all federal, state and local government web resources and services.